sensor_id;sensor_type;location;lat;lon;timestamp;pressure;altitude;pressure_sealevel;temperature;humidity
29371;BME280;16357;52.188;7.838;2024-01-27T00:00:22;102544.16;;;5.36;65.24
29371;BME280;16357;52.188;7.838;2024-01-27T00:02:49;102546.13;;;5.33;65.44
29371;BME280;16357;52.188;7.838;2024-01-27T00:05:15;102548.06;;;5.29;65.13
29371;BME280;16357;52.188;7.838;2024-01-27T00:07:42;102556.16;;;5.27;65.21
29371;BME280;16357;52.188;7.838;2024-01-27T00:10:09;102550.13;;;5.24;65.27
29371;BME280;16357;52.188;7.838;2024-01-27T00:12:36;102547.53;;;5.22;65.46
29371;BME280;16357;52.188;7.838;2024-01-27T00:15:03;102542.38;;;5.19;65.58
29371;BME280;16357;52.188;7.838;2024-01-27T00:17:29;102546.03;;;5.17;65.80
29371;BME280;16357;52.188;7.838;2024-01-27T00:19:56;102551.44;;;5.15;65.85
29371;BME280;16357;52.188;7.838;2024-01-27T00:22:22;102555.09;;;5.13;65.43
29371;BME280;16357;52.188;7.838;2024-01-27T00:24:49;102555.31;;;5.08;65.33
29371;BME280;16357;52.188;7.838;2024-01-27T00:27:15;102563.41;;;5.06;65.34
29371;BME280;16357;52.188;7.838;2024-01-27T00:29:42;102568.94;;;5.02;65.29
29371;BME280;16357;52.188;7.838;2024-01-27T00:32:09;102570.03;;;4.98;65.29
29371;BME280;16357;52.188;7.838;2024-01-27T00:34:35;102572.81;;;4.95;65.17
29371;BME280;16357;52.188;7.838;2024-01-27T00:37:02;102576.59;;;4.91;65.07
29371;BME280;16357;52.188;7.838;2024-01-27T00:39:29;102581.28;;;4.86;65.33
29371;BME280;16357;52.188;7.838;2024-01-27T00:41:55;102587.66;;;4.81;65.17
29371;BME280;16357;52.188;7.838;2024-01-27T00:44:24;102591.41;;;4.77;65.30
29371;BME280;16357;52.188;7.838;2024-01-27T00:46:51;102588.97;;;4.73;65.59
29371;BME280;16357;52.188;7.838;2024-01-27T00:49:17;102595.28;;;4.70;65.52
29371;BME280;16357;52.188;7.838;2024-01-27T00:51:44;102602.56;;;4.67;65.92
29371;BME280;16357;52.188;7.838;2024-01-27T00:54:11;102602.72;;;4.64;65.95
29371;BME280;16357;52.188;7.838;2024-01-27T00:56:37;102603.72;;;4.61;66.07
29371;BME280;16357;52.188;7.838;2024-01-27T00:59:04;102604.78;;;4.57;65.86
29371;BME280;16357;52.188;7.838;2024-01-27T01:01:30;102601.31;;;4.55;65.96
29371;BME280;16357;52.188;7.838;2024-01-27T01:03:57;102607.63;;;4.52;65.95
29371;BME280;16357;52.188;7.838;2024-01-27T01:06:23;102608.63;;;4.50;66.07
29371;BME280;16357;52.188;7.838;2024-01-27T01:08:50;102610.53;;;4.48;65.94
29371;BME280;16357;52.188;7.838;2024-01-27T01:11:16;102615.09;;;4.44;66.20
29371;BME280;16357;52.188;7.838;2024-01-27T01:13:43;102615.25;;;4.41;65.80
29371;BME280;16357;52.188;7.838;2024-01-27T01:16:09;102617.97;;;4.39;66.17
29371;BME280;16357;52.188;7.838;2024-01-27T01:18:36;102615.44;;;4.36;65.88
29371;BME280;16357;52.188;7.838;2024-01-27T01:21:03;102611.22;;;4.32;65.98
29371;BME280;16357;52.188;7.838;2024-01-27T01:23:29;102615.69;;;4.32;66.27
29371;BME280;16357;52.188;7.838;2024-01-27T01:25:56;102622.06;;;4.28;65.93
29371;BME280;16357;52.188;7.838;2024-01-27T01:28:23;102620.41;;;4.25;65.83
29371;BME280;16357;52.188;7.838;2024-01-27T01:30:49;102626.75;;;4.21;65.81
29371;BME280;16357;52.188;7.838;2024-01-27T01:33:16;102624.25;;;4.18;65.93
29371;BME280;16357;52.188;7.838;2024-01-27T01:35:43;102636.72;;;4.16;65.89
29371;BME280;16357;52.188;7.838;2024-01-27T01:38:10;102637.75;;;4.13;66.23
29371;BME280;16357;52.188;7.838;2024-01-27T01:40:37;102637.00;;;4.10;66.14
29371;BME280;16357;52.188;7.838;2024-01-27T01:43:11;102629.13;;;4.08;66.26
29371;BME280;16357;52.188;7.838;2024-01-27T01:45:38;102625.72;;;4.05;66.34
29371;BME280;16357;52.188;7.838;2024-01-27T01:48:05;102630.25;;;4.03;66.11
29371;BME280;16357;52.188;7.838;2024-01-27T01:50:33;102629.53;;;3.99;65.97
29371;BME280;16357;52.188;7.838;2024-01-27T01:53:01;102633.16;;;3.96;66.34
29371;BME280;16357;52.188;7.838;2024-01-27T01:55:27;102626.28;;;3.92;66.24
29371;BME280;16357;52.188;7.838;2024-01-27T01:57:54;102627.28;;;3.90;66.20
29371;BME280;16357;52.188;7.838;2024-01-27T02:00:20;102626.53;;;3.86;66.31
29371;BME280;16357;52.188;7.838;2024-01-27T02:02:47;102626.66;;;3.83;66.58
29371;BME280;16357;52.188;7.838;2024-01-27T02:05:14;102628.53;;;3.81;66.18
29371;BME280;16357;52.188;7.838;2024-01-27T02:07:41;102629.59;;;3.77;66.37
29371;BME280;16357;52.188;7.838;2024-01-27T02:10:13;102635.03;;;3.74;66.51
29371;BME280;16357;52.188;7.838;2024-01-27T02:12:40;102633.38;;;3.71;66.56
29371;BME280;16357;52.188;7.838;2024-01-27T02:15:10;102628.19;;;3.68;66.94
29371;BME280;16357;52.188;7.838;2024-01-27T02:17:37;102630.06;;;3.66;66.77
29371;BME280;16357;52.188;7.838;2024-01-27T02:20:08;102639.00;;;3.64;66.55
29371;BME280;16357;52.188;7.838;2024-01-27T02:22:34;102641.81;;;3.61;66.89
29371;BME280;16357;52.188;7.838;2024-01-27T02:25:02;102643.56;;;3.60;66.98
29371;BME280;16357;52.188;7.838;2024-01-27T02:27:29;102629.53;;;3.58;66.76
29371;BME280;16357;52.188;7.838;2024-01-27T02:29:56;102627.88;;;3.56;66.85
29371;BME280;16357;52.188;7.838;2024-01-27T02:32:23;102627.06;;;3.54;66.78
29371;BME280;16357;52.188;7.838;2024-01-27T02:34:49;102636.88;;;3.51;66.63
29371;BME280;16357;52.188;7.838;2024-01-27T02:37:17;102629.03;;;3.48;66.53
29371;BME280;16357;52.188;7.838;2024-01-27T02:39:44;102636.25;;;3.45;66.69
29371;BME280;16357;52.188;7.838;2024-01-27T02:42:10;102628.41;;;3.42;67.14
29371;BME280;16357;52.188;7.838;2024-01-27T02:44:37;102624.09;;;3.39;66.91
29371;BME280;16357;52.188;7.838;2024-01-27T02:47:03;102629.53;;;3.36;67.24
29371;BME280;16357;52.188;7.838;2024-01-27T02:49:30;102626.97;;;3.35;66.92
29371;BME280;16357;52.188;7.838;2024-01-27T02:51:56;102634.13;;;3.33;67.02
29371;BME280;16357;52.188;7.838;2024-01-27T02:54:23;102630.66;;;3.30;66.93
29371;BME280;16357;52.188;7.838;2024-01-27T02:56:49;102636.94;;;3.28;66.95
29371;BME280;16357;52.188;7.838;2024-01-27T02:59:16;102643.22;;;3.25;67.12
29371;BME280;16357;52.188;7.838;2024-01-27T03:01:43;102638.91;;;3.23;67.19
29371;BME280;16357;52.188;7.838;2024-01-27T03:04:09;102638.06;;;3.22;66.98
29371;BME280;16357;52.188;7.838;2024-01-27T03:06:36;102639.91;;;3.20;67.03
29371;BME280;16357;52.188;7.838;2024-01-27T03:09:02;102635.59;;;3.18;67.14
29371;BME280;16357;52.188;7.838;2024-01-27T03:11:29;102634.78;;;3.16;67.25
29371;BME280;16357;52.188;7.838;2024-01-27T03:13:56;102640.22;;;3.13;67.18
29371;BME280;16357;52.188;7.838;2024-01-27T03:16:22;102640.34;;;3.10;66.99
29371;BME280;16357;52.188;7.838;2024-01-27T03:18:49;102637.72;;;3.08;67.17
29371;BME280;16357;52.188;7.838;2024-01-27T03:21:15;102641.41;;;3.05;66.98
29371;BME280;16357;52.188;7.838;2024-01-27T03:23:42;102637.09;;;3.03;67.20
29371;BME280;16357;52.188;7.838;2024-01-27T03:26:08;102638.06;;;3.00;67.31
29371;BME280;16357;52.188;7.838;2024-01-27T03:28:35;102642.56;;;2.98;67.21
29371;BME280;16357;52.188;7.838;2024-01-27T03:31:02;102652.34;;;2.96;67.28
29371;BME280;16357;52.188;7.838;2024-01-27T03:33:28;102649.75;;;2.95;67.46
29371;BME280;16357;52.188;7.838;2024-01-27T03:35:57;102637.47;;;2.92;67.45
29371;BME280;16357;52.188;7.838;2024-01-27T03:38:24;102642.78;;;2.92;67.58
29371;BME280;16357;52.188;7.838;2024-01-27T03:40:50;102638.41;;;2.91;67.43
29371;BME280;16357;52.188;7.838;2024-01-27T03:43:17;102636.69;;;2.90;67.26
29371;BME280;16357;52.188;7.838;2024-01-27T03:45:43;102637.59;;;2.89;67.15
29371;BME280;16357;52.188;7.838;2024-01-27T03:48:10;102646.53;;;2.86;67.44
29371;BME280;16357;52.188;7.838;2024-01-27T03:50:37;102647.50;;;2.84;67.32
29371;BME280;16357;52.188;7.838;2024-01-27T03:53:04;102654.69;;;2.82;67.48
29371;BME280;16357;52.188;7.838;2024-01-27T03:55:30;102651.22;;;2.80;67.69
29371;BME280;16357;52.188;7.838;2024-01-27T03:57:57;102653.06;;;2.78;67.71
29371;BME280;16357;52.188;7.838;2024-01-27T04:00:24;102646.06;;;2.77;67.81
29371;BME280;16357;52.188;7.838;2024-01-27T04:02:51;102652.25;;;2.76;67.78
29371;BME280;16357;52.188;7.838;2024-01-27T04:05:17;102658.50;;;2.75;67.75
29371;BME280;16357;52.188;7.838;2024-01-27T04:07:44;102653.22;;;2.73;67.94
29371;BME280;16357;52.188;7.838;2024-01-27T04:10:11;102656.81;;;2.72;68.11
29371;BME280;16357;52.188;7.838;2024-01-27T04:12:38;102654.22;;;2.71;67.94
29371;BME280;16357;52.188;7.838;2024-01-27T04:15:04;102656.88;;;2.71;67.79
29371;BME280;16357;52.188;7.838;2024-01-27T04:17:31;102663.09;;;2.70;67.84
29371;BME280;16357;52.188;7.838;2024-01-27T04:19:57;102663.16;;;2.68;67.90
29371;BME280;16357;52.188;7.838;2024-01-27T04:22:24;102662.28;;;2.68;67.79
29371;BME280;16357;52.188;7.838;2024-01-27T04:24:51;102660.56;;;2.67;67.69
29371;BME280;16357;52.188;7.838;2024-01-27T04:27:17;102657.09;;;2.64;67.88
29371;BME280;16357;52.188;7.838;2024-01-27T04:29:44;102660.69;;;2.63;67.82
29371;BME280;16357;52.188;7.838;2024-01-27T04:32:11;102659.81;;;2.63;67.88
29371;BME280;16357;52.188;7.838;2024-01-27T04:34:39;102658.09;;;2.62;67.83
29371;BME280;16357;52.188;7.838;2024-01-27T04:37:06;102666.97;;;2.61;67.71
29371;BME280;16357;52.188;7.838;2024-01-27T04:39:32;102665.22;;;2.60;67.51
29371;BME280;16357;52.188;7.838;2024-01-27T04:41:59;102662.66;;;2.58;67.60
29371;BME280;16357;52.188;7.838;2024-01-27T04:44:25;102663.53;;;2.57;67.63
29371;BME280;16357;52.188;7.838;2024-01-27T04:46:52;102659.22;;;2.55;67.71
29371;BME280;16357;52.188;7.838;2024-01-27T04:49:19;102664.59;;;2.53;67.44
29371;BME280;16357;52.188;7.838;2024-01-27T04:51:46;102665.56;;;2.51;67.68
29371;BME280;16357;52.188;7.838;2024-01-27T04:54:12;102667.41;;;2.49;67.58
29371;BME280;16357;52.188;7.838;2024-01-27T04:56:39;102664.81;;;2.47;67.86
29371;BME280;16357;52.188;7.838;2024-01-27T04:59:05;102660.44;;;2.46;67.73
29371;BME280;16357;52.188;7.838;2024-01-27T05:01:32;102670.22;;;2.44;67.92
29371;BME280;16357;52.188;7.838;2024-01-27T05:03:59;102673.81;;;2.43;67.87
29371;BME280;16357;52.188;7.838;2024-01-27T05:06:26;102668.56;;;2.41;67.94
29371;BME280;16357;52.188;7.838;2024-01-27T05:08:52;102667.72;;;2.39;67.91
29371;BME280;16357;52.188;7.838;2024-01-27T05:11:29;102669.59;;;2.37;68.25
29371;BME280;16357;52.188;7.838;2024-01-27T05:13:55;102673.22;;;2.35;67.76
29371;BME280;16357;52.188;7.838;2024-01-27T05:16:22;102676.84;;;2.32;68.10
29371;BME280;16357;52.188;7.838;2024-01-27T05:18:48;102681.31;;;2.30;67.75
29371;BME280;16357;52.188;7.838;2024-01-27T05:21:15;102669.06;;;2.28;68.18
29371;BME280;16357;52.188;7.838;2024-01-27T05:23:42;102672.69;;;2.25;68.38
29371;BME280;16357;52.188;7.838;2024-01-27T05:26:08;102676.25;;;2.24;68.25
29371;BME280;16357;52.188;7.838;2024-01-27T05:28:38;102670.06;;;2.24;68.33
29371;BME280;16357;52.188;7.838;2024-01-27T05:31:08;102669.22;;;2.23;68.35
29371;BME280;16357;52.188;7.838;2024-01-27T05:33:35;102676.31;;;2.23;68.54
29371;BME280;16357;52.188;7.838;2024-01-27T05:36:02;102679.88;;;2.22;68.42
29371;BME280;16357;52.188;7.838;2024-01-27T05:38:29;102674.59;;;2.22;68.64
29371;BME280;16357;52.188;7.838;2024-01-27T05:41:00;102671.00;;;2.23;68.60
29371;BME280;16357;52.188;7.838;2024-01-27T05:43:27;102675.47;;;2.20;68.63
29371;BME280;16357;52.188;7.838;2024-01-27T05:45:54;102673.69;;;2.21;68.58
29371;BME280;16357;52.188;7.838;2024-01-27T05:48:21;102679.00;;;2.21;68.33
29371;BME280;16357;52.188;7.838;2024-01-27T05:50:59;102682.56;;;2.20;68.34
29371;BME280;16357;52.188;7.838;2024-01-27T05:53:27;102689.66;;;2.19;68.37
29371;BME280;16357;52.188;7.838;2024-01-27T05:55:55;102687.91;;;2.18;68.60
29371;BME280;16357;52.188;7.838;2024-01-27T05:58:23;102704.72;;;2.17;68.36
29371;BME280;16357;52.188;7.838;2024-01-27T06:00:49;102695.06;;;2.16;68.35
29371;BME280;16357;52.188;7.838;2024-01-27T06:03:16;102697.72;;;2.16;68.31
29371;BME280;16357;52.188;7.838;2024-01-27T06:05:44;102707.44;;;2.16;68.28
29371;BME280;16357;52.188;7.838;2024-01-27T06:08:10;102706.56;;;2.15;68.35
29371;BME280;16357;52.188;7.838;2024-01-27T06:10:37;102711.00;;;2.15;68.40
29371;BME280;16357;52.188;7.838;2024-01-27T06:13:03;102713.72;;;2.13;68.28
29371;BME280;16357;52.188;7.838;2024-01-27T06:15:30;102717.25;;;2.12;68.23
29371;BME280;16357;52.188;7.838;2024-01-27T06:17:57;102713.75;;;2.12;68.17
29371;BME280;16357;52.188;7.838;2024-01-27T06:20:24;102708.50;;;2.10;68.12
29371;BME280;16357;52.188;7.838;2024-01-27T06:22:51;102712.06;;;2.09;68.35
29371;BME280;16357;52.188;7.838;2024-01-27T06:25:20;102713.06;;;2.05;68.55
29371;BME280;16357;52.188;7.838;2024-01-27T06:27:47;102710.44;;;2.05;68.54
29371;BME280;16357;52.188;7.838;2024-01-27T06:30:14;102717.59;;;2.03;68.66
29371;BME280;16357;52.188;7.838;2024-01-27T06:32:42;102715.84;;;2.02;68.65
29371;BME280;16357;52.188;7.838;2024-01-27T06:35:09;102722.91;;;2.02;68.92
29371;BME280;16357;52.188;7.838;2024-01-27T06:37:35;102718.56;;;2.01;68.95
29371;BME280;16357;52.188;7.838;2024-01-27T06:40:02;102722.06;;;2.01;69.07
29371;BME280;16357;52.188;7.838;2024-01-27T06:42:29;102729.13;;;2.01;68.98
29371;BME280;16357;52.188;7.838;2024-01-27T06:44:56;102725.59;;;2.00;68.67
29371;BME280;16357;52.188;7.838;2024-01-27T06:47:22;102733.53;;;2.00;68.71
29371;BME280;16357;52.188;7.838;2024-01-27T06:49:49;102729.19;;;1.99;68.67
29371;BME280;16357;52.188;7.838;2024-01-27T06:52:15;102740.72;;;1.96;68.69
29371;BME280;16357;52.188;7.838;2024-01-27T06:54:42;102731.94;;;1.96;68.77
29371;BME280;16357;52.188;7.838;2024-01-27T06:57:21;102739.91;;;1.94;68.66
29371;BME280;16357;52.188;7.838;2024-01-27T06:59:49;102739.16;;;1.91;68.80
29371;BME280;16357;52.188;7.838;2024-01-27T07:02:22;102748.03;;;1.90;68.82
29371;BME280;16357;52.188;7.838;2024-01-27T07:04:49;102744.56;;;1.88;68.83
29371;BME280;16357;52.188;7.838;2024-01-27T07:07:15;102746.38;;;1.86;68.96
29371;BME280;16357;52.188;7.838;2024-01-27T07:09:42;102760.53;;;1.85;68.90
29371;BME280;16357;52.188;7.838;2024-01-27T07:12:08;102764.09;;;1.84;69.07
29371;BME280;16357;52.188;7.838;2024-01-27T07:14:35;102760.53;;;1.85;68.97
29371;BME280;16357;52.188;7.838;2024-01-27T07:17:03;102760.53;;;1.85;69.03
29371;BME280;16357;52.188;7.838;2024-01-27T07:19:30;102756.16;;;1.84;69.13
29371;BME280;16357;52.188;7.838;2024-01-27T07:21:58;102767.59;;;1.84;69.17
29371;BME280;16357;52.188;7.838;2024-01-27T07:24:25;102759.66;;;1.84;68.94
29371;BME280;16357;52.188;7.838;2024-01-27T07:26:51;102760.53;;;1.85;68.92
29371;BME280;16357;52.188;7.838;2024-01-27T07:29:21;102757.91;;;1.85;68.99
29371;BME280;16357;52.188;7.838;2024-01-27T07:31:47;102754.38;;;1.84;68.77
29371;BME280;16357;52.188;7.838;2024-01-27T07:34:14;102757.00;;;1.84;68.93
29371;BME280;16357;52.188;7.838;2024-01-27T07:36:41;102744.66;;;1.85;69.02
29371;BME280;16357;52.188;7.838;2024-01-27T07:39:07;102764.91;;;1.86;69.00
29371;BME280;16357;52.188;7.838;2024-01-27T07:41:35;102765.84;;;1.85;69.24
29371;BME280;16357;52.188;7.838;2024-01-27T07:44:13;102771.03;;;1.88;69.09
29371;BME280;16357;52.188;7.838;2024-01-27T07:46:40;102772.75;;;1.89;69.40
29371;BME280;16357;52.188;7.838;2024-01-27T07:49:07;102775.28;;;1.92;69.60
29371;BME280;16357;52.188;7.838;2024-01-27T07:51:35;102782.25;;;1.94;69.60
29371;BME280;16357;52.188;7.838;2024-01-27T07:54:01;102782.19;;;1.97;69.79
29371;BME280;16357;52.188;7.838;2024-01-27T07:56:28;102782.06;;;2.01;69.64
29371;BME280;16357;52.188;7.838;2024-01-27T07:58:55;102782.84;;;2.04;69.94
29371;BME280;16357;52.188;7.838;2024-01-27T08:01:21;102782.72;;;2.07;69.90
29371;BME280;16357;52.188;7.838;2024-01-27T08:03:48;102783.44;;;2.12;69.94
29371;BME280;16357;52.188;7.838;2024-01-27T08:06:17;102782.44;;;2.16;70.08
29371;BME280;16357;52.188;7.838;2024-01-27T08:08:48;102788.44;;;2.22;70.28
29371;BME280;16357;52.188;7.838;2024-01-27T08:11:15;102782.97;;;2.26;70.31
29371;BME280;16357;52.188;7.838;2024-01-27T08:13:42;102783.63;;;2.33;70.69
29371;BME280;16357;52.188;7.838;2024-01-27T08:16:08;102780.03;;;2.35;70.70
29371;BME280;16357;52.188;7.838;2024-01-27T08:18:39;102771.84;;;2.41;70.68
29371;BME280;16357;52.188;7.838;2024-01-27T08:21:06;102789.31;;;2.47;70.68
29371;BME280;16357;52.188;7.838;2024-01-27T08:23:32;102787.38;;;2.52;70.82
29371;BME280;16357;52.188;7.838;2024-01-27T08:25:59;102792.50;;;2.57;70.90
29371;BME280;16357;52.188;7.838;2024-01-27T08:28:25;102796.69;;;2.64;71.01
29371;BME280;16357;52.188;7.838;2024-01-27T08:30:52;102800.91;;;2.70;70.85
29371;BME280;16357;52.188;7.838;2024-01-27T08:33:19;102805.97;;;2.76;70.98
29371;BME280;16357;52.188;7.838;2024-01-27T08:35:48;102802.22;;;2.81;70.88
29371;BME280;16357;52.188;7.838;2024-01-27T08:38:15;102810.84;;;2.88;71.20
29371;BME280;16357;52.188;7.838;2024-01-27T08:40:41;102807.94;;;2.94;71.05
29371;BME280;16357;52.188;7.838;2024-01-27T08:43:08;102811.31;;;2.99;71.25
29371;BME280;16357;52.188;7.838;2024-01-27T08:45:39;102803.06;;;3.07;71.29
29371;BME280;16357;52.188;7.838;2024-01-27T08:48:07;102824.03;;;3.13;71.29
29371;BME280;16357;52.188;7.838;2024-01-27T08:50:33;102817.66;;;3.19;71.31
29371;BME280;16357;52.188;7.838;2024-01-27T08:53:00;102815.63;;;3.25;71.02
29371;BME280;16357;52.188;7.838;2024-01-27T08:55:27;102819.84;;;3.31;71.25
29371;BME280;16357;52.188;7.838;2024-01-27T08:57:53;102815.22;;;3.36;71.28
29371;BME280;16357;52.188;7.838;2024-01-27T09:00:20;102809.72;;;3.42;71.35
29371;BME280;16357;52.188;7.838;2024-01-27T09:02:46;102815.63;;;3.49;71.34
29371;BME280;16357;52.188;7.838;2024-01-27T09:05:14;102818.97;;;3.54;71.08
29371;BME280;16357;52.188;7.838;2024-01-27T09:07:41;102820.47;;;3.61;71.58
29371;BME280;16357;52.188;7.838;2024-01-27T09:10:08;102814.03;;;3.67;71.19
29371;BME280;16357;52.188;7.838;2024-01-27T09:12:35;102820.84;;;3.74;71.12
29371;BME280;16357;52.188;7.838;2024-01-27T09:15:02;102824.19;;;3.79;71.27
29371;BME280;16357;52.188;7.838;2024-01-27T09:17:29;102830.16;;;3.84;70.92
29371;BME280;16357;52.188;7.838;2024-01-27T09:19:55;102830.84;;;3.89;71.21
29371;BME280;16357;52.188;7.838;2024-01-27T09:22:22;102841.22;;;3.95;71.24
29371;BME280;16357;52.188;7.838;2024-01-27T09:24:48;102837.38;;;4.03;70.91
29371;BME280;16357;52.188;7.838;2024-01-27T09:27:15;102841.66;;;4.07;70.99
29371;BME280;16357;52.188;7.838;2024-01-27T09:29:41;102836.16;;;4.11;70.75
29371;BME280;16357;52.188;7.838;2024-01-27T09:32:08;102843.00;;;4.17;70.99
29371;BME280;16357;52.188;7.838;2024-01-27T09:34:35;102847.19;;;4.23;70.84
29371;BME280;16357;52.188;7.838;2024-01-27T09:37:02;102844.28;;;4.29;70.88
29371;BME280;16357;52.188;7.838;2024-01-27T09:39:29;102850.22;;;4.35;71.24
29371;BME280;16357;52.188;7.838;2024-01-27T09:41:56;102847.38;;;4.40;71.01
29371;BME280;16357;52.188;7.838;2024-01-27T09:44:23;102865.66;;;4.48;71.42
29371;BME280;16357;52.188;7.838;2024-01-27T09:46:52;102872.44;;;4.55;71.28
29371;BME280;16357;52.188;7.838;2024-01-27T09:49:19;102866.88;;;4.61;71.19
29371;BME280;16357;52.188;7.838;2024-01-27T09:51:46;102867.41;;;4.69;70.94
29371;BME280;16357;52.188;7.838;2024-01-27T09:54:13;102873.38;;;4.74;71.15
29371;BME280;16357;52.188;7.838;2024-01-27T09:56:45;102873.06;;;4.82;70.92
29371;BME280;16357;52.188;7.838;2024-01-27T09:59:12;102879.91;;;4.88;70.91
29371;BME280;16357;52.188;7.838;2024-01-27T10:01:42;102876.03;;;4.95;71.23
29371;BME280;16357;52.188;7.838;2024-01-27T10:04:08;102877.44;;;5.03;70.91
29371;BME280;16357;52.188;7.838;2024-01-27T10:06:35;102869.13;;;5.11;71.33
29371;BME280;16357;52.188;7.838;2024-01-27T10:09:02;102865.22;;;5.18;71.04
29371;BME280;16357;52.188;7.838;2024-01-27T10:11:30;102855.09;;;5.26;71.10
29371;BME280;16357;52.188;7.838;2024-01-27T10:13:59;102852.97;;;5.35;71.15
29371;BME280;16357;52.188;7.838;2024-01-27T10:16:42;102852.53;;;5.44;71.14
29371;BME280;16357;52.188;7.838;2024-01-27T10:19:14;102861.03;;;5.52;70.89
29371;BME280;16357;52.188;7.838;2024-01-27T10:21:42;102852.69;;;5.60;70.99
29371;BME280;16357;52.188;7.838;2024-01-27T10:24:09;102846.06;;;5.68;70.71
29371;BME280;16357;52.188;7.838;2024-01-27T10:26:35;102840.47;;;5.75;70.64
29371;BME280;16357;52.188;7.838;2024-01-27T10:29:02;102848.00;;;5.84;70.98
29371;BME280;16357;52.188;7.838;2024-01-27T10:31:35;102840.47;;;5.93;70.32
29371;BME280;16357;52.188;7.838;2024-01-27T10:34:03;102848.94;;;6.02;70.61
29371;BME280;16357;52.188;7.838;2024-01-27T10:36:39;102844.94;;;6.10;70.50
29371;BME280;16357;52.188;7.838;2024-01-27T10:39:22;102844.50;;;6.20;70.20
29371;BME280;16357;52.188;7.838;2024-01-27T10:41:51;102837.00;;;6.28;70.34
29371;BME280;16357;52.188;7.838;2024-01-27T10:44:19;102841.84;;;6.37;70.45
29371;BME280;16357;52.188;7.838;2024-01-27T10:46:47;102825.47;;;6.45;69.82
29371;BME280;16357;52.188;7.838;2024-01-27T10:49:16;102826.81;;;6.53;70.02
29371;BME280;16357;52.188;7.838;2024-01-27T10:51:46;102825.47;;;6.62;69.82
29371;BME280;16357;52.188;7.838;2024-01-27T10:54:14;102824.13;;;6.71;69.90
29371;BME280;16357;52.188;7.838;2024-01-27T10:56:42;102817.53;;;6.78;69.50
29371;BME280;16357;52.188;7.838;2024-01-27T10:59:11;102822.38;;;6.87;69.07
29371;BME280;16357;52.188;7.838;2024-01-27T11:01:39;102823.78;;;6.94;68.83
29371;BME280;16357;52.188;7.838;2024-01-27T11:04:06;102826.91;;;7.02;69.05
29371;BME280;16357;52.188;7.838;2024-01-27T11:06:34;102828.25;;;7.11;68.63
29371;BME280;16357;52.188;7.838;2024-01-27T11:09:01;102819.81;;;7.19;68.51
29371;BME280;16357;52.188;7.838;2024-01-27T11:11:30;102824.66;;;7.28;68.37
29371;BME280;16357;52.188;7.838;2024-01-27T11:13:57;102823.38;;;7.35;68.32
29371;BME280;16357;52.188;7.838;2024-01-27T11:16:24;102818.53;;;7.42;68.17
29371;BME280;16357;52.188;7.838;2024-01-27T11:18:50;102816.31;;;7.50;68.26
29371;BME280;16357;52.188;7.838;2024-01-27T11:21:17;102824.78;;;7.58;67.92
29371;BME280;16357;52.188;7.838;2024-01-27T11:23:45;102829.66;;;7.66;67.22
29371;BME280;16357;52.188;7.838;2024-01-27T11:26:19;102822.09;;;7.74;67.09
29371;BME280;16357;52.188;7.838;2024-01-27T11:28:48;102834.25;;;7.80;66.75
29371;BME280;16357;52.188;7.838;2024-01-27T11:31:17;102828.56;;;7.86;67.00
29371;BME280;16357;52.188;7.838;2024-01-27T11:33:47;102828.19;;;7.92;66.54
29371;BME280;16357;52.188;7.838;2024-01-27T11:36:22;102826.97;;;7.98;66.89
29371;BME280;16357;52.188;7.838;2024-01-27T11:38:51;102830.25;;;8.03;66.36
29371;BME280;16357;52.188;7.838;2024-01-27T11:41:28;102833.38;;;8.11;66.79
29371;BME280;16357;52.188;7.838;2024-01-27T11:43:58;102832.03;;;8.18;66.12
29371;BME280;16357;52.188;7.838;2024-01-27T11:46:28;102826.44;;;8.23;65.40
29371;BME280;16357;52.188;7.838;2024-01-27T11:48:55;102832.28;;;8.29;65.48
29371;BME280;16357;52.188;7.838;2024-01-27T11:51:22;102826.75;;;8.32;65.16
29371;BME280;16357;52.188;7.838;2024-01-27T11:53:50;102829.06;;;8.39;64.89
29371;BME280;16357;52.188;7.838;2024-01-27T11:56:17;102835.03;;;8.44;64.96
29371;BME280;16357;52.188;7.838;2024-01-27T11:58:47;102833.81;;;8.49;65.41
29371;BME280;16357;52.188;7.838;2024-01-27T12:01:15;102831.72;;;8.54;64.84
29371;BME280;16357;52.188;7.838;2024-01-27T12:03:42;102834.97;;;8.60;64.57
29371;BME280;16357;52.188;7.838;2024-01-27T12:06:11;102840.84;;;8.66;64.28
29371;BME280;16357;52.188;7.838;2024-01-27T12:08:41;102832.44;;;8.72;64.48
29371;BME280;16357;52.188;7.838;2024-01-27T12:11:14;102836.56;;;8.78;64.02
29371;BME280;16357;52.188;7.838;2024-01-27T12:13:43;102836.16;;;8.84;63.75
29371;BME280;16357;52.188;7.838;2024-01-27T12:16:10;102833.22;;;8.89;63.49
29371;BME280;16357;52.188;7.838;2024-01-27T12:18:36;102831.13;;;8.94;63.28
29371;BME280;16357;52.188;7.838;2024-01-27T12:21:03;102829.09;;;8.97;62.95
29371;BME280;16357;52.188;7.838;2024-01-27T12:23:29;102825.31;;;9.01;63.07
29371;BME280;16357;52.188;7.838;2024-01-27T12:25:56;102819.75;;;9.05;63.03
29371;BME280;16357;52.188;7.838;2024-01-27T12:28:23;102821.38;;;9.07;62.57
29371;BME280;16357;52.188;7.838;2024-01-27T12:30:51;102820.25;;;9.11;62.66
29371;BME280;16357;52.188;7.838;2024-01-27T12:33:18;102827.97;;;9.16;62.81
29371;BME280;16357;52.188;7.838;2024-01-27T12:35:50;102819.66;;;9.20;62.60
29371;BME280;16357;52.188;7.838;2024-01-27T12:38:17;102827.41;;;9.25;62.60
29371;BME280;16357;52.188;7.838;2024-01-27T12:40:44;102818.13;;;9.31;61.90
29371;BME280;16357;52.188;7.838;2024-01-27T12:43:11;102816.97;;;9.35;61.39
29371;BME280;16357;52.188;7.838;2024-01-27T12:45:37;102813.13;;;9.39;61.32
29371;BME280;16357;52.188;7.838;2024-01-27T12:48:04;102821.66;;;9.45;61.34
29371;BME280;16357;52.188;7.838;2024-01-27T12:50:32;102817.91;;;9.48;61.37
29371;BME280;16357;52.188;7.838;2024-01-27T12:52:59;102818.50;;;9.53;60.85
29371;BME280;16357;52.188;7.838;2024-01-27T12:55:26;102823.53;;;9.58;60.61
29371;BME280;16357;52.188;7.838;2024-01-27T12:57:52;102824.09;;;9.63;60.66
29371;BME280;16357;52.188;7.838;2024-01-27T13:00:19;102826.56;;;9.66;60.80